• Join FlightAware (Why Join?)
  • Login
  • US Flag GB Flag 
13:04 EDT


 

Airport Tracker/Info


-or-


 

Live Flight TrackerFlight Track Log ✈ UAL4625 ✈ 01-May-2013 ✈ CYHZ - KEWR

Flight Track Log - Related Links

Times and Time Zones

All times are in EDT time to prevent confusion due to time zone crossing. See the UAL4625 flight status page for this flight to view local times or setup timezone preferences in your user account.

Time Position Orientation Groundspeed Altitude Reporting Facility
EDT Latitude Longitude Course Direction KTS MPH feet Rate Location/Type
06:33 44.8833 -63.5167 180° South 170 196 2,100  Level Moncton Center
06:34 44.8833 -63.6167 270° West 220 253 4,400 2,400 Climbing Moncton Center
06:35 44.8667 -63.7167 257° West 250 288 6,900 2,400 Climbing Moncton Center
06:36 44.8500 -63.8000 254° West 280 322 9,300 2,100 Climbing Moncton Center
06:37 44.8333 -63.9333 260° West 290 334 11,200 1,560 Climbing Moncton Center
06:38 44.8167 -64.0667 260° West 340 391 12,500 1,560 Climbing Moncton Center
06:39 44.7763 -64.3000 180° South  Level FlightAware Approximate
06:39 44.7833 -64.2167 253° West 360 414 14,400  Level Moncton Center
06:40 44.7667 -64.3500 260° West 370 426 16,200 1,740 Climbing Moncton Center
06:41 44.7500 -64.4833 260° West 370 426 17,900 1,320 Climbing Moncton Center
06:42 44.7333 -64.6333 261° West 380 437 18,900 1,200 Climbing Moncton Center
06:43 44.7167 -64.7667 260° West 380 437 20,300 1,320 Climbing Moncton Center
06:44 44.7000 -64.9333 262° West 390 449 21,600 1,380 Climbing Moncton Center
06:45 44.6833 -65.0833 261° West 390 449 23,100 1,440 Climbing Moncton Center
06:46 44.6667 -65.2167 260° West 390 449 24,500 1,440 Climbing Moncton Center
06:47 44.6333 -65.3833 254° West 390 449 26,000 1,500 Climbing Moncton Center
06:48 44.6167 -65.5167 260° West 380 437 27,500 1,500 Climbing Moncton Center
06:49 44.6000 -65.6667 261° West 370 426 29,000 1,380 Climbing Moncton Center
06:50 44.5833 -65.8000 260° West 370 426 30,300 1,260 Climbing Moncton Center
06:51 44.5667 -65.9500 261° West 370 426 31,600 1,260 Climbing Moncton Center
06:52 44.5500 -66.0833 260° West 370 426 32,900 1,260 Climbing Moncton Center
06:53 44.5167 -66.2500 254° West 370 426 34,200 1,200 Climbing Moncton Center
06:54 44.5000 -66.3667 259° West 360 414 35,300 900 Climbing Moncton Center
06:55 44.4667 -66.5000 251° West 360 414 36,000 300 Climbing Moncton Center
06:56 44.4500 -66.6500 261° West 370 426 36,000  Level Moncton Center
06:57 44.4333 -66.8167 262° West 400 460 36,000  Level Moncton Center
06:58 44.4000 -66.9667 253° West 420 483 36,000  Level Moncton Center
06:59 44.3833 -67.1333 262° West 430 495 36,000  Level Moncton Center
07:00 44.3794 -67.2394 267° West 439 505 36,000  Level Boston Center
07:00 44.3500 -67.3167 242° Southwest 450 518 36,000  Level Moncton Center
07:01 44.3517 -67.4133 271° West 452 520 36,000  Level Boston Center
07:02 44.3256 -67.5839 258° West 457 526 36,000  Level Boston Center
07:03 44.2992 -67.7544 258° West 457 526 36,000  Level Boston Center
07:04 44.2706 -67.9250 257° West 457 526 36,000  Level Boston Center
07:05 44.2417 -68.0953 257° West 457 526 36,000  Level Boston Center
07:06 44.2167 -68.2625 258° West 451 519 36,000  Level Boston Center
07:07 44.1894 -68.4325 257° West 451 519 36,000  Level Boston Center
07:08 44.1583 -68.6197 257° West 451 519 36,000  Level Boston Center
07:09 44.1306 -68.7894 257° West 456 525 36,000  Level Boston Center
07:10 44.1022 -68.9589 257° West 456 525 36,000  Level Boston Center
07:11 44.0719 -69.1342 257° West 456 525 36,000  Level Boston Center
07:12 44.0433 -69.3033 257° West 456 525 36,000  Level Boston Center
07:13 44.0106 -69.4753 255° West 456 525 36,000  Level Boston Center
07:14 43.9775 -69.6531 256° West 456 525 36,000  Level Boston Center
07:15 43.9558 -69.7925 258° West 456 525 36,000  Level Boston Center
07:16 43.9206 -69.9844 256° West 456 525 36,000  Level Boston Center
07:17 43.8944 -70.1408 257° West 462 532 36,000  Level Boston Center
07:18 43.8564 -70.3297 254° West 462 532 36,000  Level Boston Center
07:19 43.8242 -70.5006 255° West 467 537 36,000  Level Boston Center
07:20 43.7914 -70.6769 256° West 467 537 36,000  Level Boston Center
07:21 43.7586 -70.8506 255° West 472 543 36,000  Level Boston Center
07:22 43.7253 -71.0239 255° West 472 543 36,000  Level Boston Center
07:23 43.6861 -71.2286 255° West 472 543 36,000  Level Boston Center
07:24 43.6506 -71.4214 256° West 467 537 36,000  Level Boston Center
07:25 43.6164 -71.5942 255° West 467 537 36,000  Level Boston Center
07:26 43.5761 -71.8011 255° West 467 537 36,000  Level Boston Center
07:27 43.5414 -71.9733 255° West 467 537 36,000  Level Boston Center
07:28 43.5086 -72.1453 255° West 472 543 36,000  Level Boston Center
07:29 43.4717 -72.3256 254° West 479 551 36,000  Level Boston Center
07:30 43.4361 -72.5000 254° West 479 551 36,000 -120 Level Boston Center
07:31 43.4006 -72.6714 254° West 474 545 35,800 -6,000 Descending Boston Center
07:32 43.3647 -72.8428 254° West 474 545 24,000 -1,980 Descending Boston Center
07:33 43.3283 -73.0139 254° West 474 545 31,900 2,700 Climbing Boston Center
07:34 43.2942 -73.1817 254° West 474 545 29,500 -2,460 Descending Boston Center
07:35 43.2594 -73.3494 254° West 474 545 27,000 -2,400 Descending Boston Center
07:36 43.2208 -73.4972 250° West 469 540 24,700 -1,500 Descending Boston Center
07:37 43.1278 -73.6378 228° Southwest 453 521 24,000 -540 Descending Boston Center
07:38 43.0042 -73.6950 199° South 439 505 23,700 -1,380 Descending Boston Center
07:39 42.8764 -73.7489 197° South 446 513 21,300 -2,160 Descending Boston Center
07:40 42.7822 -73.7894 198° South 458 527 19,400 -2,100 Descending Boston Center
07:41 42.6564 -73.8489 199° South 440 506 17,200 -1,740 Descending Boston Center
07:42 42.5622 -73.8861 196° South 404 465 16,000 -600 Descending Boston Center
07:43 42.4511 -73.9369 199° South 389 448 16,100  Climbing Boston Center
07:44 42.3525 -73.9797 198° South 396 456 16,100  Level Boston Center
07:45 42.2392 -74.0300 198° South 396 456 16,100 -60 Level Boston Center
07:46 42.1447 -74.0725 198° South 402 463 16,000  Descending Boston Center
07:47 42.0378 -74.1200 198° South 402 463 16,100  Climbing Boston Center
07:48 41.9225 -74.1700 198° South 407 468 16,000 -720 Descending Boston Center
07:49 41.8300 -74.2092 198° South 407 468 14,700 -1,800 Descending Boston Center
07:50 41.7189 -74.2589 198° South 397 457 12,500 -1,980 Descending Boston Center
07:51 41.6369 -74.2956 198° South 365 420 10,800 -1,560 Descending Boston Center
07:52 41.5489 -74.3347 198° South 327 376 9,400 -1,380 Descending Boston Center
07:54 41.4167 -74.3833 195° South 273 314 7,000 -840 Descending New York TRACON
07:55 41.3500 -74.4167 201° Southwest 273 314 7,100  Climbing New York TRACON
07:56 41.2667 -74.4500 197° South 278 320 7,100  Level New York TRACON
07:57 41.2000 -74.4833 201° Southwest 279 321 7,100  Level New York TRACON
07:58 41.1333 -74.5167 201° Southwest 277 319 7,100  Level New York TRACON
07:59 41.0500 -74.5333 189° South 278 320 7,100  Level New York TRACON
08:00 40.9833 -74.5500 191° South 281 323 7,100 -60 Level New York TRACON
08:01 40.9000 -74.5667 189° South 280 322 7,000 -480 Descending New York TRACON
08:02 40.8333 -74.5833 191° South 276 318 6,200 -1,020 Descending New York TRACON
08:03 40.7667 -74.6000 191° South 265 305 5,100 -600 Descending New York TRACON
08:04 40.7000 -74.5833 169° South 257 296 5,000  Descending New York TRACON
08:05 40.6333 -74.5333 150° Southeast 253 291 5,100 -60 Climbing New York TRACON
08:06 40.5833 -74.4667 135° Southeast 248 285 4,900 -600 Descending New York TRACON
08:07 40.5667 -74.4000 108° East 247 284 4,000 -960 Descending New York TRACON
08:08 40.5333 -74.3167 118° Southeast 218 251 3,100 -480 Descending New York TRACON
08:09 40.5333 -74.2667 90° East 176 203 3,100 -420 Level New York TRACON
08:10 40.5667 -74.2500 21° North 179 206 2,400 -720 Descending New York TRACON
08:11 40.6000 -74.2167 37° Northeast 160 184 1,800 -660 Descending New York TRACON
08:12 40.6333 -74.2000 21° North 128 147 1,100 -720 Descending New York TRACON
08:14 40.6833 -74.1667 23° Northeast  Level FlightAware Approximate
08:21 40.6925 -74.1687 23° Northeast  Level Estimated